createdAt,value
2023-01-19T00:01:41.918Z,3.00
2023-01-19T00:04:09.255Z,2.93
2023-01-19T00:06:36.634Z,2.91
2023-01-19T00:09:03.965Z,2.85
2023-01-19T00:11:31.453Z,2.85
2023-01-19T00:13:59.001Z,2.86
2023-01-19T00:16:26.423Z,2.85
2023-01-19T00:18:54.255Z,2.82
2023-01-19T00:21:22.048Z,2.75
2023-01-19T00:23:52.097Z,2.68
2023-01-19T00:26:21.932Z,2.62
2023-01-19T00:28:49.988Z,2.56
2023-01-19T00:31:20.103Z,2.50
2023-01-19T00:33:49.125Z,2.52
2023-01-19T00:36:16.863Z,2.58
2023-01-19T00:38:44.415Z,2.60
2023-01-19T00:41:11.780Z,2.56
2023-01-19T00:43:39.276Z,2.52
2023-01-19T00:46:06.881Z,2.45
2023-01-19T00:48:34.591Z,2.44
2023-01-19T00:51:02.103Z,2.44
2023-01-19T00:53:32.038Z,2.48
2023-01-19T00:55:59.739Z,2.56
2023-01-19T00:58:27.327Z,2.58
2023-01-19T01:00:57.417Z,2.58
2023-01-19T01:03:27.716Z,2.61
2023-01-19T01:05:55.273Z,2.66
2023-01-19T01:08:22.486Z,2.72
2023-01-19T01:10:50.615Z,2.82
2023-01-19T01:13:21.098Z,2.92
2023-01-19T01:15:50.950Z,2.94
2023-01-19T01:18:18.255Z,2.93
2023-01-19T01:20:45.943Z,2.92
2023-01-19T01:23:13.847Z,2.94
2023-01-19T01:25:42.206Z,2.95
2023-01-19T01:28:09.823Z,2.95
2023-01-19T01:30:41.055Z,2.94
2023-01-19T01:33:08.564Z,2.95
2023-01-19T01:35:36.656Z,2.95
2023-01-19T01:38:04.329Z,2.95
2023-01-19T01:40:31.617Z,2.95
2023-01-19T01:42:59.516Z,2.97
2023-01-19T01:45:32.958Z,2.98
2023-01-19T01:48:08.380Z,2.97
2023-01-19T01:51:01.457Z,2.94
2023-01-19T01:53:32.668Z,2.90
2023-01-19T01:56:04.622Z,2.88
2023-01-19T01:58:33.697Z,2.85
2023-01-19T02:01:20.324Z,2.83
2023-01-19T02:03:47.989Z,2.80
2023-01-19T02:06:15.446Z,2.78
2023-01-19T02:09:18.173Z,2.80
2023-01-19T02:12:05.344Z,2.83
2023-01-19T02:14:37.040Z,2.81
2023-01-19T02:17:06.127Z,2.79
2023-01-19T02:19:42.233Z,2.70
2023-01-19T02:22:16.370Z,2.59
2023-01-19T02:24:44.373Z,2.52
2023-01-19T02:27:12.283Z,2.48
2023-01-19T02:29:39.853Z,2.48
2023-01-19T02:32:08.665Z,2.49
2023-01-19T02:34:36.451Z,2.48
2023-01-19T02:37:08.488Z,2.52
2023-01-19T02:39:54.170Z,2.57
2023-01-19T02:42:29.909Z,2.61
2023-01-19T02:44:57.838Z,2.66
2023-01-19T02:47:25.748Z,2.68
2023-01-19T02:50:00.485Z,2.69
2023-01-19T02:52:28.867Z,2.67
2023-01-19T02:55:18.045Z,2.63
2023-01-19T02:58:11.388Z,2.58
2023-01-19T03:00:48.308Z,2.51
2023-01-19T03:03:30.359Z,2.47
2023-01-19T03:06:24.308Z,2.44
2023-01-19T03:09:05.731Z,2.41
2023-01-19T03:11:40.017Z,2.41
2023-01-19T03:14:14.456Z,2.39
2023-01-19T03:16:50.903Z,2.37
2023-01-19T03:19:50.191Z,2.39
2023-01-19T03:22:27.013Z,2.40
2023-01-19T03:24:59.933Z,2.40
2023-01-19T03:27:32.359Z,2.39
2023-01-19T03:30:18.294Z,2.37
2023-01-19T03:32:56.343Z,2.37
2023-01-19T03:35:29.195Z,2.40
2023-01-19T03:38:00.691Z,2.41
2023-01-19T03:40:31.931Z,2.44
2023-01-19T03:43:01.454Z,2.48
2023-01-19T03:45:33.151Z,2.50
2023-01-19T03:48:00.605Z,2.53
2023-01-19T03:50:29.754Z,2.58
2023-01-19T03:53:10.224Z,2.56
2023-01-19T03:55:40.269Z,2.53
2023-01-19T03:58:08.143Z,2.52
2023-01-19T04:00:36.547Z,2.50
2023-01-19T04:03:05.278Z,2.52
2023-01-19T04:05:33.801Z,2.55
2023-01-19T04:08:01.194Z,2.59
2023-01-19T04:10:28.570Z,2.64
2023-01-19T04:13:01.050Z,2.67
2023-01-19T04:15:30.210Z,2.72
2023-01-19T04:17:59.259Z,2.68
2023-01-19T04:20:27.771Z,2.62
2023-01-19T04:22:59.181Z,2.58
2023-01-19T04:25:28.146Z,2.50
2023-01-19T04:27:57.542Z,2.44
2023-01-19T04:30:26.201Z,2.40
2023-01-19T04:32:55.855Z,2.39
2023-01-19T04:35:23.349Z,2.40
2023-01-19T04:37:51.071Z,2.41
2023-01-19T04:40:18.684Z,2.44
2023-01-19T04:42:46.557Z,2.50
2023-01-19T04:45:14.278Z,2.55
2023-01-19T04:47:42.182Z,2.54
2023-01-19T04:50:10.625Z,2.52
2023-01-19T04:52:38.464Z,2.51
2023-01-19T04:55:07.042Z,2.56
2023-01-19T04:57:34.439Z,2.58
2023-01-19T05:00:02.883Z,2.57
2023-01-19T05:02:30.346Z,2.59
2023-01-19T05:04:57.897Z,2.59
2023-01-19T05:07:25.626Z,2.57
2023-01-19T05:09:53.571Z,2.53
2023-01-19T05:12:21.593Z,2.49
2023-01-19T05:14:48.991Z,2.50
2023-01-19T05:17:16.492Z,2.52
2023-01-19T05:19:43.880Z,2.57
2023-01-19T05:22:11.391Z,2.57
2023-01-19T05:24:38.901Z,2.55
2023-01-19T05:27:06.522Z,2.53
2023-01-19T05:29:34.156Z,2.53
2023-01-19T05:32:01.763Z,2.48
2023-01-19T05:34:28.975Z,2.43
2023-01-19T05:36:56.741Z,2.38
2023-01-19T05:39:25.628Z,2.32
2023-01-19T05:41:52.938Z,2.32
2023-01-19T05:44:20.828Z,2.32
2023-01-19T05:46:48.540Z,2.33
2023-01-19T05:49:16.072Z,2.39
2023-01-19T05:51:45.093Z,2.40
2023-01-19T05:54:15.026Z,2.37
2023-01-19T05:56:45.319Z,2.31
2023-01-19T05:59:12.675Z,2.29
2023-01-19T06:01:41.329Z,2.28
2023-01-19T06:04:08.571Z,2.20
2023-01-19T06:06:36.063Z,2.09
2023-01-19T06:09:03.709Z,2.00
2023-01-19T06:11:30.969Z,1.95
2023-01-19T06:13:58.569Z,1.88
2023-01-19T06:16:26.619Z,1.85
2023-01-19T06:18:53.864Z,1.83
2023-01-19T06:21:21.628Z,1.84
2023-01-19T06:23:49.138Z,1.89
2023-01-19T06:26:16.433Z,1.92
2023-01-19T06:28:43.898Z,1.93
2023-01-19T06:31:11.642Z,1.92
2023-01-19T06:33:39.450Z,1.86
2023-01-19T06:36:07.313Z,1.80
2023-01-19T06:38:35.240Z,1.76
2023-01-19T06:41:02.927Z,1.73
2023-01-19T06:43:31.527Z,1.68
2023-01-19T06:46:00.087Z,1.62
2023-01-19T06:48:27.691Z,1.55
2023-01-19T06:50:56.208Z,1.50
2023-01-19T06:53:27.574Z,1.46
2023-01-19T06:56:01.078Z,1.43
2023-01-19T06:58:29.453Z,1.43
2023-01-19T07:01:09.732Z,1.42
2023-01-19T07:03:38.708Z,1.45
2023-01-19T07:06:06.857Z,1.49
2023-01-19T07:08:35.737Z,1.52
2023-01-19T07:11:25.650Z,1.51
2023-01-19T07:13:58.832Z,1.46
2023-01-19T07:16:27.640Z,1.42
2023-01-19T07:18:55.145Z,1.39
2023-01-19T07:21:23.155Z,1.37
2023-01-19T07:23:52.082Z,1.37
2023-01-19T07:26:21.500Z,1.39
2023-01-19T07:28:50.339Z,1.43
2023-01-19T07:31:18.266Z,1.48
2023-01-19T07:33:46.043Z,1.52
2023-01-19T07:36:13.781Z,1.55
2023-01-19T07:38:41.155Z,1.55
2023-01-19T07:41:10.299Z,1.54
2023-01-19T07:43:38.689Z,1.55
2023-01-19T07:46:07.809Z,1.54
2023-01-19T07:48:35.490Z,1.53
2023-01-19T07:51:05.996Z,1.53
2023-01-19T07:53:34.656Z,1.55
2023-01-19T07:56:02.050Z,1.56
2023-01-19T07:58:29.574Z,1.56
2023-01-19T08:00:57.294Z,1.56
2023-01-19T08:03:24.624Z,1.56
2023-01-19T08:05:53.212Z,1.58
2023-01-19T08:08:21.469Z,1.62
2023-01-19T08:10:52.179Z,1.64
2023-01-19T08:13:19.903Z,1.68
2023-01-19T08:15:50.909Z,1.73
2023-01-19T08:18:18.918Z,1.77
2023-01-19T08:20:46.779Z,1.84
2023-01-19T08:23:14.708Z,1.92
2023-01-19T08:25:46.100Z,2.00
2023-01-19T08:28:15.779Z,2.17
2023-01-19T08:30:44.628Z,2.35
2023-01-19T08:33:13.356Z,2.56
2023-01-19T08:35:43.710Z,2.73
2023-01-19T08:38:11.841Z,2.85
2023-01-19T08:40:41.583Z,2.96
2023-01-19T08:43:11.566Z,3.09
2023-01-19T08:45:41.978Z,3.29
2023-01-19T08:48:10.119Z,3.54
2023-01-19T08:50:43.526Z,3.80
2023-01-19T08:53:15.785Z,4.05
2023-01-19T08:55:44.147Z,4.19
2023-01-19T08:58:11.602Z,4.28
2023-01-19T09:00:39.850Z,4.38
2023-01-19T09:03:10.974Z,4.49
2023-01-19T09:05:38.721Z,4.59
2023-01-19T09:08:09.091Z,4.77
2023-01-19T09:10:38.111Z,4.93
2023-01-19T09:13:13.494Z,5.09
2023-01-19T09:15:42.200Z,5.19
2023-01-19T09:18:13.190Z,5.32
2023-01-19T09:20:42.997Z,5.45
2023-01-19T09:23:12.096Z,5.55
2023-01-19T09:25:40.970Z,5.65
2023-01-19T09:28:11.259Z,5.79
2023-01-19T09:30:40.746Z,5.96
2023-01-19T09:33:10.874Z,6.08
2023-01-19T09:35:39.823Z,6.20
2023-01-19T09:38:08.999Z,6.38
2023-01-19T09:40:42.309Z,6.48
2023-01-19T09:43:15.599Z,6.49
2023-01-19T09:45:53.428Z,6.40
2023-01-19T09:48:27.493Z,6.19
2023-01-19T09:50:59.138Z,5.97
2023-01-19T09:53:52.389Z,5.68
2023-01-19T09:56:21.862Z,5.39
2023-01-19T09:58:51.025Z,5.14
2023-01-19T10:01:49.882Z,4.96
2023-01-19T10:04:35.123Z,4.88
2023-01-19T10:07:19.144Z,4.71
2023-01-19T10:10:12.344Z,4.61
2023-01-19T10:13:08.464Z,4.52
2023-01-19T10:15:46.501Z,4.47
2023-01-19T10:18:42.898Z,4.47
2023-01-19T10:21:19.467Z,4.42
2023-01-19T10:24:17.877Z,4.38
2023-01-19T10:26:53.435Z,4.35
2023-01-19T10:29:26.070Z,4.29
2023-01-19T10:32:03.800Z,4.21
2023-01-19T10:34:31.472Z,4.19
2023-01-19T10:37:13.489Z,4.21
2023-01-19T10:39:41.749Z,4.23
2023-01-19T10:42:14.911Z,4.22
2023-01-19T10:44:42.441Z,4.19
2023-01-19T10:47:18.965Z,4.16
2023-01-19T10:49:48.297Z,4.14
2023-01-19T10:52:35.511Z,4.16
2023-01-19T10:55:05.453Z,4.20
2023-01-19T10:57:37.948Z,4.17
2023-01-19T11:00:27.314Z,4.14
2023-01-19T11:02:55.004Z,4.11
2023-01-19T11:05:31.550Z,4.09
2023-01-19T11:07:58.993Z,4.10
2023-01-19T11:10:30.085Z,4.14
2023-01-19T11:13:13.045Z,4.16
2023-01-19T11:15:42.203Z,4.15
2023-01-19T11:18:28.743Z,4.18
2023-01-19T11:21:01.842Z,4.20
2023-01-19T11:23:33.398Z,4.23
2023-01-19T11:26:04.785Z,4.15
2023-01-19T11:28:39.865Z,4.08
2023-01-19T11:31:10.744Z,4.03
2023-01-19T11:33:52.356Z,4.09
2023-01-19T11:36:23.112Z,4.13
2023-01-19T11:38:53.234Z,4.15
2023-01-19T11:41:30.654Z,4.19
2023-01-19T11:44:09.730Z,4.22
2023-01-19T11:46:41.426Z,4.28
2023-01-19T11:49:22.072Z,4.31
2023-01-19T11:51:58.325Z,4.25
2023-01-19T11:57:33.673Z,4.17
2023-01-19T12:00:11.288Z,4.16
2023-01-19T12:02:52.862Z,4.24
2023-01-19T12:05:22.609Z,4.23
2023-01-19T12:07:51.932Z,4.16
2023-01-19T12:10:36.175Z,4.13
2023-01-19T12:13:04.475Z,4.03
2023-01-19T12:15:38.789Z,3.98
2023-01-19T12:18:12.646Z,3.97
2023-01-19T12:20:44.424Z,3.98
2023-01-19T12:23:44.631Z,4.00
2023-01-19T12:26:28.585Z,4.01
2023-01-19T12:29:17.654Z,4.05
2023-01-19T12:31:45.384Z,4.14
2023-01-19T12:34:25.713Z,4.16
2023-01-19T12:37:00.226Z,4.14
2023-01-19T12:39:28.322Z,4.18
2023-01-19T12:42:12.306Z,4.20
2023-01-19T12:44:41.370Z,4.24
2023-01-19T12:47:14.725Z,4.28
2023-01-19T12:49:45.706Z,4.30
2023-01-19T12:52:24.005Z,4.32
2023-01-19T12:55:01.810Z,4.31
2023-01-19T12:57:37.677Z,4.25
2023-01-19T13:00:30.175Z,4.21
2023-01-19T13:03:04.643Z,4.20
2023-01-19T13:05:33.410Z,4.18
2023-01-19T13:08:09.968Z,4.15
2023-01-19T13:11:01.829Z,4.15
2023-01-19T13:13:39.709Z,4.13
2023-01-19T13:16:19.621Z,4.11
2023-01-19T13:18:50.232Z,4.04
2023-01-19T13:21:44.266Z,3.95
2023-01-19T13:24:17.601Z,3.85
2023-01-19T13:26:51.602Z,3.79
2023-01-19T13:29:40.947Z,3.75
2023-01-19T13:32:18.410Z,3.68
2023-01-19T13:34:51.615Z,3.63
2023-01-19T13:37:22.133Z,3.60
2023-01-19T13:39:53.570Z,3.58
2023-01-19T13:42:33.736Z,3.58
2023-01-19T13:45:08.532Z,3.55
2023-01-19T13:47:43.245Z,3.52
2023-01-19T13:50:32.545Z,3.51
2023-01-19T13:53:02.357Z,3.46
2023-01-19T13:55:30.741Z,3.43
2023-01-19T13:57:58.537Z,3.41
2023-01-19T14:00:29.104Z,3.36
2023-01-19T14:03:09.613Z,3.34
2023-01-19T14:05:40.621Z,3.31
2023-01-19T14:08:10.696Z,3.28
2023-01-19T14:11:02.030Z,3.24
2023-01-19T14:13:32.233Z,3.20
2023-01-19T14:16:17.178Z,3.16
2023-01-19T14:18:45.271Z,3.10
2023-01-19T14:21:14.526Z,3.05
2023-01-19T14:24:05.859Z,3.01
2023-01-19T14:26:54.283Z,2.94
2023-01-19T14:29:34.911Z,2.86
2023-01-19T14:32:10.360Z,2.81
2023-01-19T14:34:45.466Z,2.77
2023-01-19T14:37:22.903Z,2.76
2023-01-19T14:39:55.402Z,2.71
2023-01-19T14:42:33.289Z,2.67
2023-01-19T14:45:02.977Z,2.62
2023-01-19T14:47:40.766Z,2.59
2023-01-19T14:50:17.899Z,2.57
2023-01-19T14:52:58.228Z,2.52
2023-01-19T14:55:34.973Z,2.45
2023-01-19T15:06:59.497Z,2.25
2023-01-19T15:21:41.916Z,2.53
2023-01-19T15:24:10.406Z,2.54
2023-01-19T15:26:40.015Z,2.48
2023-01-19T15:29:22.664Z,2.39
2023-01-19T15:31:51.403Z,2.29
2023-01-19T15:34:18.777Z,2.18
2023-01-19T15:36:46.153Z,2.11
2023-01-19T15:39:13.599Z,2.06
2023-01-19T15:41:41.030Z,1.98
2023-01-19T15:44:10.478Z,1.91
2023-01-19T15:46:38.496Z,1.90
2023-01-19T15:49:17.896Z,1.90
2023-01-19T15:51:45.600Z,1.94
2023-01-19T15:54:16.471Z,2.02
2023-01-19T15:56:47.556Z,2.08
2023-01-19T15:59:18.515Z,2.13
2023-01-19T16:01:45.898Z,2.08
2023-01-19T16:04:14.034Z,2.03
2023-01-19T16:07:02.604Z,2.00
2023-01-19T16:09:30.448Z,1.99
2023-01-19T16:11:58.380Z,1.95
2023-01-19T16:14:25.692Z,1.93
2023-01-19T16:16:53.412Z,1.91
2023-01-19T16:19:20.838Z,1.89
2023-01-19T16:21:48.230Z,1.86
2023-01-19T16:24:16.254Z,1.82
2023-01-19T16:26:43.786Z,1.78
2023-01-19T16:29:11.109Z,1.73
2023-01-19T16:31:42.859Z,1.66
2023-01-19T16:34:11.055Z,1.59
2023-01-19T16:36:41.544Z,1.53
2023-01-19T16:39:18.294Z,1.53
2023-01-19T16:41:46.055Z,1.54
2023-01-19T16:44:15.802Z,1.58
2023-01-19T16:46:45.393Z,1.64
2023-01-19T16:49:15.103Z,1.65
2023-01-19T16:51:43.214Z,1.66
2023-01-19T16:54:16.095Z,1.60
2023-01-19T16:56:43.679Z,1.48
2023-01-19T16:59:13.542Z,1.35
2023-01-19T17:01:41.077Z,1.31
2023-01-19T17:04:08.497Z,1.28
2023-01-19T17:06:35.691Z,1.19
2023-01-19T17:09:03.905Z,1.14
2023-01-19T17:11:34.431Z,1.10
2023-01-19T17:14:03.070Z,1.09
2023-01-19T17:16:32.762Z,1.09
2023-01-19T17:19:02.842Z,1.11
2023-01-19T17:21:30.321Z,1.10
2023-01-19T17:23:59.115Z,1.07
2023-01-19T17:26:27.956Z,1.09
2023-01-19T17:29:01.535Z,1.11
2023-01-19T17:31:30.197Z,1.11
2023-01-19T17:33:58.733Z,1.09
2023-01-19T17:36:28.749Z,0.98
2023-01-19T17:38:56.801Z,0.92
2023-01-19T17:41:27.217Z,0.91
2023-01-19T17:43:55.261Z,0.93
2023-01-19T17:46:28.239Z,0.93
2023-01-19T17:49:01.552Z,0.94
2023-01-19T17:51:30.327Z,0.95
2023-01-19T17:53:58.332Z,0.94
2023-01-19T17:56:29.680Z,0.84
2023-01-19T17:58:58.274Z,0.79
2023-01-19T18:01:28.833Z,0.77
2023-01-19T18:04:18.636Z,0.73
2023-01-19T18:07:16.487Z,0.61
2023-01-19T18:10:17.797Z,0.47
2023-01-19T18:13:13.617Z,0.39
2023-01-19T18:16:08.259Z,0.38
2023-01-19T18:19:04.428Z,0.39
2023-01-19T18:22:06.176Z,0.37
2023-01-19T18:24:59.967Z,0.37
2023-01-19T18:27:59.356Z,0.46
2023-01-19T18:30:54.547Z,0.55
2023-01-19T18:33:43.160Z,0.62
2023-01-19T18:36:52.676Z,0.66
2023-01-19T18:39:48.519Z,0.67
2023-01-19T18:42:44.302Z,0.65
2023-01-19T18:45:26.864Z,0.64
2023-01-19T18:47:55.506Z,0.62
2023-01-19T18:50:23.569Z,0.60
2023-01-19T18:52:52.674Z,0.59
2023-01-19T18:55:20.148Z,0.59
2023-01-19T18:57:47.467Z,0.60
2023-01-19T19:00:15.609Z,0.62
2023-01-19T19:02:47.573Z,0.66
2023-01-19T19:05:14.900Z,0.65
2023-01-19T19:07:42.633Z,0.62
2023-01-19T19:10:11.056Z,0.57
2023-01-19T19:12:38.997Z,0.48
2023-01-19T19:15:08.334Z,0.40
2023-01-19T19:17:35.920Z,0.29
2023-01-19T19:20:05.234Z,0.25
2023-01-19T19:22:35.071Z,0.23
2023-01-19T19:28:01.171Z,0.33
2023-01-19T19:30:28.701Z,0.30
2023-01-19T19:32:56.483Z,0.34
2023-01-19T19:35:24.422Z,0.38
2023-01-19T19:37:57.017Z,0.41
2023-01-19T19:40:28.780Z,0.49
2023-01-19T19:42:58.626Z,0.59
2023-01-19T19:45:26.542Z,0.67
2023-01-19T19:47:54.296Z,0.72
2023-01-19T19:50:21.720Z,0.72
2023-01-19T19:52:49.020Z,0.69
2023-01-19T19:55:16.847Z,0.71
2023-01-19T19:57:44.172Z,0.72
2023-01-19T20:00:11.847Z,0.71
2023-01-19T20:02:39.861Z,0.69
2023-01-19T20:05:07.562Z,0.67
2023-01-19T20:07:34.758Z,0.68
2023-01-19T20:10:02.260Z,0.69
2023-01-19T20:12:29.790Z,0.66
2023-01-19T20:14:58.045Z,0.58
2023-01-19T20:17:25.739Z,0.47
2023-01-19T20:19:54.215Z,0.40
2023-01-19T20:22:21.694Z,0.40
2023-01-19T20:24:51.285Z,0.47
2023-01-19T20:27:19.143Z,0.56
2023-01-19T20:29:52.704Z,0.59
2023-01-19T20:32:20.503Z,0.65
2023-01-19T20:34:47.687Z,0.71
2023-01-19T20:37:15.085Z,0.77
2023-01-19T20:39:44.231Z,0.81
2023-01-19T20:42:15.230Z,0.83
2023-01-19T20:44:42.577Z,0.84
2023-01-19T20:47:12.155Z,0.84
2023-01-19T20:49:39.531Z,0.80
2023-01-19T20:52:06.725Z,0.74
2023-01-19T20:54:34.460Z,0.74
2023-01-19T20:57:01.791Z,0.75
2023-01-19T20:59:29.060Z,0.76
2023-01-19T21:01:57.491Z,0.77
2023-01-19T21:04:24.962Z,0.78
2023-01-19T21:06:52.165Z,0.78
2023-01-19T21:09:20.174Z,0.79
2023-01-19T21:11:47.372Z,0.83
2023-01-19T21:14:14.932Z,0.88
2023-01-19T21:16:42.881Z,0.91
2023-01-19T21:19:11.674Z,0.93
2023-01-19T21:21:39.271Z,0.94
2023-01-19T21:24:07.584Z,0.95
2023-01-19T21:26:35.534Z,0.93
2023-01-19T21:29:03.750Z,0.91
2023-01-19T21:31:31.666Z,0.86
2023-01-19T21:33:59.403Z,0.77
2023-01-19T21:36:27.113Z,0.69
2023-01-19T21:39:00.036Z,0.67
2023-01-19T21:41:28.027Z,0.66
2023-01-19T21:43:58.051Z,0.66
2023-01-19T21:46:29.372Z,0.64
2023-01-19T21:48:58.105Z,0.62
2023-01-19T21:51:25.494Z,0.65
2023-01-19T21:53:55.923Z,0.69
2023-01-19T21:56:23.420Z,0.76
2023-01-19T21:58:50.907Z,0.79
2023-01-19T22:01:18.827Z,0.80
2023-01-19T22:03:46.509Z,0.79
2023-01-19T22:06:14.620Z,0.81
2023-01-19T22:08:42.514Z,0.85
2023-01-19T22:11:11.856Z,0.87
2023-01-19T22:13:39.588Z,0.88
2023-01-19T22:16:18.910Z,0.89
2023-01-19T22:18:52.393Z,0.89
2023-01-19T22:21:35.906Z,0.87
2023-01-19T22:24:05.184Z,0.85
2023-01-19T22:26:33.718Z,0.83
2023-01-19T22:29:02.147Z,0.83
2023-01-19T22:31:32.963Z,0.84
2023-01-19T22:34:00.518Z,0.86
2023-01-19T22:36:35.824Z,0.87
2023-01-19T22:39:06.213Z,0.90
2023-01-19T22:41:44.945Z,0.93
2023-01-19T22:44:14.958Z,0.96
2023-01-19T22:46:43.338Z,0.98
2023-01-19T22:49:14.251Z,0.99
2023-01-19T22:51:42.330Z,1.00
2023-01-19T22:54:10.664Z,1.00
2023-01-19T22:56:39.412Z,0.99
2023-01-19T22:59:07.507Z,0.95
2023-01-19T23:01:40.160Z,0.90
2023-01-19T23:04:11.194Z,0.81
2023-01-19T23:06:38.743Z,0.77
2023-01-19T23:09:11.639Z,0.74
2023-01-19T23:11:42.480Z,0.68
2023-01-19T23:14:15.609Z,0.65
2023-01-19T23:16:43.438Z,0.67
2023-01-19T23:19:12.267Z,0.70
2023-01-19T23:21:40.410Z,0.76
2023-01-19T23:24:08.731Z,0.77
2023-01-19T23:26:37.630Z,0.76
2023-01-19T23:29:09.646Z,0.75
2023-01-19T23:31:39.616Z,0.74
2023-01-19T23:34:09.647Z,0.74
2023-01-19T23:36:37.812Z,0.70
2023-01-19T23:39:18.739Z,0.57
2023-01-19T23:41:46.934Z,0.56
2023-01-19T23:44:14.799Z,0.58
2023-01-19T23:46:43.493Z,0.55
2023-01-19T23:49:11.913Z,0.54
2023-01-19T23:51:40.696Z,0.54
2023-01-19T23:54:07.891Z,0.56
2023-01-19T23:56:37.860Z,0.58
2023-01-19T23:59:08.527Z,0.63
